sensor_id;sensor_type;location;lat;lon;timestamp;pressure;altitude;pressure_sealevel;temperature;humidity
53011;BME280;42803;55.762;38.084;2023-05-03T00:01:08;99836.38;;;3.00;91.91
53011;BME280;42803;55.762;38.084;2023-05-03T00:03:37;99840.97;;;3.03;92.17
53011;BME280;42803;55.762;38.084;2023-05-03T00:06:10;99839.53;;;2.98;91.73
53011;BME280;42803;55.762;38.084;2023-05-03T00:08:40;99836.94;;;2.98;92.15
53011;BME280;42803;55.762;38.084;2023-05-03T00:11:11;99839.72;;;2.99;92.02
53011;BME280;42803;55.762;38.084;2023-05-03T00:13:40;99835.72;;;2.94;91.93
53011;BME280;42803;55.762;38.084;2023-05-03T00:16:10;99837.53;;;2.95;92.49
53011;BME280;42803;55.762;38.084;2023-05-03T00:18:39;99836.03;;;2.97;92.57
53011;BME280;42803;55.762;38.084;2023-05-03T00:21:08;99834.47;;;2.90;93.06
53011;BME280;42803;55.762;38.084;2023-05-03T00:23:37;99832.09;;;2.85;93.11
53011;BME280;42803;55.762;38.084;2023-05-03T00:26:06;99835.09;;;2.81;93.54
53011;BME280;42803;55.762;38.084;2023-05-03T00:28:37;99835.59;;;2.85;94.03
53011;BME280;42803;55.762;38.084;2023-05-03T00:31:06;99824.47;;;2.93;93.81
53011;BME280;42803;55.762;38.084;2023-05-03T00:33:38;99825.47;;;2.87;93.55
53011;BME280;42803;55.762;38.084;2023-05-03T00:36:07;99816.13;;;2.80;94.60
53011;BME280;42803;55.762;38.084;2023-05-03T00:38:37;99814.41;;;2.88;95.00
53011;BME280;42803;55.762;38.084;2023-05-03T00:41:07;99808.69;;;2.90;94.58
53011;BME280;42803;55.762;38.084;2023-05-03T00:43:37;99808.50;;;2.89;94.17
53011;BME280;42803;55.762;38.084;2023-05-03T00:46:06;99803.84;;;2.93;94.37
53011;BME280;42803;55.762;38.084;2023-05-03T00:48:47;99809.84;;;3.01;94.49
53011;BME280;42803;55.762;38.084;2023-05-03T00:51:18;99800.06;;;3.06;94.65
53011;BME280;42803;55.762;38.084;2023-05-03T00:53:48;99807.41;;;3.10;93.75
53011;BME280;42803;55.762;38.084;2023-05-03T00:56:18;99795.56;;;3.12;93.48
53011;BME280;42803;55.762;38.084;2023-05-03T00:58:50;99797.44;;;3.13;93.12
53011;BME280;42803;55.762;38.084;2023-05-03T01:01:19;99794.44;;;3.17;92.87
53011;BME280;42803;55.762;38.084;2023-05-03T01:03:50;99795.84;;;3.22;92.64
53011;BME280;42803;55.762;38.084;2023-05-03T01:06:24;99792.09;;;3.27;92.53
53011;BME280;42803;55.762;38.084;2023-05-03T01:09:01;99790.84;;;3.24;92.46
53011;BME280;42803;55.762;38.084;2023-05-03T01:11:40;99792.34;;;3.22;92.12
53011;BME280;42803;55.762;38.084;2023-05-03T01:14:18;99785.03;;;3.17;92.45
53011;BME280;42803;55.762;38.084;2023-05-03T01:16:52;99785.03;;;3.17;93.01
53011;BME280;42803;55.762;38.084;2023-05-03T01:19:28;99778.97;;;3.17;93.30
53011;BME280;42803;55.762;38.084;2023-05-03T01:22:09;99783.94;;;3.15;93.44
53011;BME280;42803;55.762;38.084;2023-05-03T01:24:45;99779.13;;;3.18;93.71
53011;BME280;42803;55.762;38.084;2023-05-03T01:27:16;99768.03;;;3.20;93.58
53011;BME280;42803;55.762;38.084;2023-05-03T01:29:45;99766.72;;;3.23;93.57
53011;BME280;42803;55.762;38.084;2023-05-03T01:32:19;99756.81;;;3.35;93.58
53011;BME280;42803;55.762;38.084;2023-05-03T01:35:03;99754.56;;;3.38;92.86
53011;BME280;42803;55.762;38.084;2023-05-03T01:37:33;99756.41;;;3.39;92.90
53011;BME280;42803;55.762;38.084;2023-05-03T01:40:06;99748.25;;;3.43;92.74
53011;BME280;42803;55.762;38.084;2023-05-03T01:42:38;99743.75;;;3.49;92.47
53011;BME280;42803;55.762;38.084;2023-05-03T01:45:08;99752.06;;;3.62;92.33
53011;BME280;42803;55.762;38.084;2023-05-03T01:47:38;99752.34;;;3.81;91.11
53011;BME280;42803;55.762;38.084;2023-05-03T01:50:08;99749.88;;;3.90;90.07
53011;BME280;42803;55.762;38.084;2023-05-03T01:52:37;99743.66;;;4.12;89.26
53011;BME280;42803;55.762;38.084;2023-05-03T01:55:06;99744.97;;;4.33;88.22
53011;BME280;42803;55.762;38.084;2023-05-03T01:57:36;99749.22;;;4.33;87.29
53011;BME280;42803;55.762;38.084;2023-05-03T02:00:07;99752.59;;;4.32;87.36
53011;BME280;42803;55.762;38.084;2023-05-03T02:02:40;99733.22;;;4.86;86.90
53011;BME280;42803;55.762;38.084;2023-05-03T02:05:12;99738.06;;;5.77;83.73
53011;BME280;42803;55.762;38.084;2023-05-03T02:07:41;99742.97;;;6.00;80.30
53011;BME280;42803;55.762;38.084;2023-05-03T02:10:10;99732.28;;;5.71;79.20
53011;BME280;42803;55.762;38.084;2023-05-03T02:12:43;99728.94;;;5.46;79.90
53011;BME280;42803;55.762;38.084;2023-05-03T02:15:14;99724.81;;;5.39;80.79
53011;BME280;42803;55.762;38.084;2023-05-03T02:17:46;99724.19;;;5.33;80.63
53011;BME280;42803;55.762;38.084;2023-05-03T02:20:17;99720.03;;;5.26;80.88
53011;BME280;42803;55.762;38.084;2023-05-03T02:22:46;99719.16;;;5.52;81.06
53011;BME280;42803;55.762;38.084;2023-05-03T02:25:15;99713.22;;;5.53;80.54
53011;BME280;42803;55.762;38.084;2023-05-03T02:27:44;99719.16;;;5.43;80.16
53011;BME280;42803;55.762;38.084;2023-05-03T02:30:15;99714.59;;;5.41;80.72
53011;BME280;42803;55.762;38.084;2023-05-03T02:32:44;99725.13;;;5.42;80.88
53011;BME280;42803;55.762;38.084;2023-05-03T02:35:17;99715.81;;;5.53;80.69
53011;BME280;42803;55.762;38.084;2023-05-03T02:37:46;99706.06;;;5.68;79.64
53011;BME280;42803;55.762;38.084;2023-05-03T02:40:16;99705.16;;;6.02;78.35
53011;BME280;42803;55.762;38.084;2023-05-03T02:42:47;99710.16;;;6.26;77.02
53011;BME280;42803;55.762;38.084;2023-05-03T02:45:24;99699.66;;;6.89;75.57
53011;BME280;42803;55.762;38.084;2023-05-03T02:47:53;99699.78;;;7.64;73.37
53011;BME280;42803;55.762;38.084;2023-05-03T02:50:24;99695.44;;;8.02;70.89
53011;BME280;42803;55.762;38.084;2023-05-03T02:52:54;99700.59;;;8.50;68.98
53011;BME280;42803;55.762;38.084;2023-05-03T02:55:23;99695.00;;;8.95;67.46
53011;BME280;42803;55.762;38.084;2023-05-03T02:57:53;99701.50;;;9.11;65.36
53011;BME280;42803;55.762;38.084;2023-05-03T03:00:24;99699.19;;;9.44;64.76
53011;BME280;42803;55.762;38.084;2023-05-03T03:02:53;99691.59;;;9.58;63.84
53011;BME280;42803;55.762;38.084;2023-05-03T03:05:22;99690.13;;;9.82;63.75
53011;BME280;42803;55.762;38.084;2023-05-03T03:07:51;99694.28;;;9.90;62.97
53011;BME280;42803;55.762;38.084;2023-05-03T03:10:21;99694.47;;;9.61;63.13
53011;BME280;42803;55.762;38.084;2023-05-03T03:12:50;99692.13;;;9.23;64.05
53011;BME280;42803;55.762;38.084;2023-05-03T03:15:30;99697.19;;;8.91;65.36
53011;BME280;42803;55.762;38.084;2023-05-03T03:17:59;99697.53;;;8.65;66.02
53011;BME280;42803;55.762;38.084;2023-05-03T03:20:29;99687.09;;;8.54;66.86
53011;BME280;42803;55.762;38.084;2023-05-03T03:22:58;99684.88;;;8.49;66.85
53011;BME280;42803;55.762;38.084;2023-05-03T03:25:27;99689.28;;;8.50;67.18
53011;BME280;42803;55.762;38.084;2023-05-03T03:27:57;99691.63;;;8.47;67.59
53011;BME280;42803;55.762;38.084;2023-05-03T03:30:30;99695.91;;;8.46;67.89
53011;BME280;42803;55.762;38.084;2023-05-03T03:33:09;99694.22;;;8.47;67.53
53011;BME280;42803;55.762;38.084;2023-05-03T03:35:41;99699.56;;;8.48;67.73
53011;BME280;42803;55.762;38.084;2023-05-03T03:38:11;99701.28;;;8.48;67.64
53011;BME280;42803;55.762;38.084;2023-05-03T03:40:48;99698.13;;;8.42;66.95
53011;BME280;42803;55.762;38.084;2023-05-03T03:43:18;99703.22;;;8.50;67.16
53011;BME280;42803;55.762;38.084;2023-05-03T03:45:50;99705.56;;;8.58;67.37
53011;BME280;42803;55.762;38.084;2023-05-03T03:48:19;99698.28;;;8.53;67.10
53011;BME280;42803;55.762;38.084;2023-05-03T03:50:49;99699.94;;;8.43;66.67
53011;BME280;42803;55.762;38.084;2023-05-03T03:53:21;99696.16;;;8.39;67.11
53011;BME280;42803;55.762;38.084;2023-05-03T03:55:50;99700.78;;;8.33;66.97
53011;BME280;42803;55.762;38.084;2023-05-03T03:58:19;99697.91;;;8.30;67.15
53011;BME280;42803;55.762;38.084;2023-05-03T04:00:49;99700.38;;;8.28;67.71
53011;BME280;42803;55.762;38.084;2023-05-03T04:03:22;99702.81;;;8.27;67.87
53011;BME280;42803;55.762;38.084;2023-05-03T04:05:52;99707.91;;;8.25;68.08
53011;BME280;42803;55.762;38.084;2023-05-03T04:08:22;99714.00;;;8.26;68.22
53011;BME280;42803;55.762;38.084;2023-05-03T04:10:51;99706.78;;;8.32;68.14
53011;BME280;42803;55.762;38.084;2023-05-03T04:13:21;99717.91;;;8.40;68.01
53011;BME280;42803;55.762;38.084;2023-05-03T04:15:54;99718.56;;;8.47;68.14
53011;BME280;42803;55.762;38.084;2023-05-03T04:18:25;99711.69;;;8.58;67.64
53011;BME280;42803;55.762;38.084;2023-05-03T04:20:57;99706.75;;;8.61;67.49
53011;BME280;42803;55.762;38.084;2023-05-03T04:23:26;99713.53;;;8.59;67.37
53011;BME280;42803;55.762;38.084;2023-05-03T04:25:55;99715.72;;;8.54;67.51
53011;BME280;42803;55.762;38.084;2023-05-03T04:28:26;99706.25;;;8.55;67.94
53011;BME280;42803;55.762;38.084;2023-05-03T04:30:57;99712.84;;;8.51;67.75
53011;BME280;42803;55.762;38.084;2023-05-03T04:33:28;99715.47;;;8.51;68.01
53011;BME280;42803;55.762;38.084;2023-05-03T04:36:02;99722.47;;;8.52;68.40
53011;BME280;42803;55.762;38.084;2023-05-03T04:38:36;99736.03;;;8.59;68.83
53011;BME280;42803;55.762;38.084;2023-05-03T04:41:06;99730.56;;;8.66;69.04
53011;BME280;42803;55.762;38.084;2023-05-03T04:43:36;99711.34;;;8.64;69.27
53011;BME280;42803;55.762;38.084;2023-05-03T04:46:08;99708.06;;;8.56;69.13
53011;BME280;42803;55.762;38.084;2023-05-03T04:48:37;99714.44;;;8.60;69.57
53011;BME280;42803;55.762;38.084;2023-05-03T04:51:07;99707.69;;;8.72;69.81
53011;BME280;42803;55.762;38.084;2023-05-03T04:53:36;99706.16;;;8.84;69.63
53011;BME280;42803;55.762;38.084;2023-05-03T04:56:13;99701.78;;;8.93;69.27
53011;BME280;42803;55.762;38.084;2023-05-03T04:58:43;99716.88;;;8.97;69.65
53011;BME280;42803;55.762;38.084;2023-05-03T05:01:16;99723.88;;;8.88;70.51
53011;BME280;42803;55.762;38.084;2023-05-03T05:03:46;99720.59;;;8.70;71.32
53011;BME280;42803;55.762;38.084;2023-05-03T05:06:20;99746.91;;;8.54;72.31
53011;BME280;42803;55.762;38.084;2023-05-03T05:08:49;99734.69;;;8.43;73.92
53011;BME280;42803;55.762;38.084;2023-05-03T05:11:20;99735.16;;;8.39;76.05
53011;BME280;42803;55.762;38.084;2023-05-03T05:13:50;99736.13;;;8.31;76.74
53011;BME280;42803;55.762;38.084;2023-05-03T05:16:21;99731.22;;;8.34;77.22
53011;BME280;42803;55.762;38.084;2023-05-03T05:18:53;99737.63;;;8.38;77.87
53011;BME280;42803;55.762;38.084;2023-05-03T05:21:25;99723.84;;;8.20;79.28
53011;BME280;42803;55.762;38.084;2023-05-03T05:23:56;99716.94;;;8.10;80.15
53011;BME280;42803;55.762;38.084;2023-05-03T05:26:25;99721.22;;;8.10;81.41
53011;BME280;42803;55.762;38.084;2023-05-03T05:28:55;99733.63;;;8.22;82.55
53011;BME280;42803;55.762;38.084;2023-05-03T05:31:26;99728.81;;;8.46;83.00
53011;BME280;42803;55.762;38.084;2023-05-03T05:33:55;99736.31;;;8.72;82.57
53011;BME280;42803;55.762;38.084;2023-05-03T05:36:25;99728.31;;;8.99;81.74
53011;BME280;42803;55.762;38.084;2023-05-03T05:38:54;99739.31;;;9.36;79.63
53011;BME280;42803;55.762;38.084;2023-05-03T05:41:23;99729.13;;;9.70;77.95
53011;BME280;42803;55.762;38.084;2023-05-03T05:43:53;99735.31;;;10.02;77.22
53011;BME280;42803;55.762;38.084;2023-05-03T05:46:22;99743.16;;;10.45;75.25
53011;BME280;42803;55.762;38.084;2023-05-03T05:48:55;99742.03;;;10.95;73.66
53011;BME280;42803;55.762;38.084;2023-05-03T05:51:24;99733.44;;;11.30;72.03
53011;BME280;42803;55.762;38.084;2023-05-03T05:53:55;99737.09;;;11.44;71.48
53011;BME280;42803;55.762;38.084;2023-05-03T05:56:25;99746.81;;;11.57;70.83
53011;BME280;42803;55.762;38.084;2023-05-03T05:58:54;99732.59;;;11.53;69.73
53011;BME280;42803;55.762;38.084;2023-05-03T06:01:24;99735.78;;;11.27;70.98
53011;BME280;42803;55.762;38.084;2023-05-03T06:03:55;99735.03;;;11.40;70.28
53011;BME280;42803;55.762;38.084;2023-05-03T06:06:24;99744.41;;;11.60;69.23
53011;BME280;42803;55.762;38.084;2023-05-03T06:08:54;99748.16;;;11.97;68.19
53011;BME280;42803;55.762;38.084;2023-05-03T06:11:23;99734.75;;;12.16;67.52
53011;BME280;42803;55.762;38.084;2023-05-03T06:13:54;99734.72;;;12.39;66.15
53011;BME280;42803;55.762;38.084;2023-05-03T06:16:27;99732.19;;;12.76;64.74
53011;BME280;42803;55.762;38.084;2023-05-03T06:18:57;99733.31;;;12.80;63.80
53011;BME280;42803;55.762;38.084;2023-05-03T06:21:27;99738.56;;;13.05;63.14
53011;BME280;42803;55.762;38.084;2023-05-03T06:23:57;99744.50;;;13.39;62.94
53011;BME280;42803;55.762;38.084;2023-05-03T06:26:27;99737.91;;;13.96;61.98
53011;BME280;42803;55.762;38.084;2023-05-03T06:28:56;99739.63;;;13.95;60.48
53011;BME280;42803;55.762;38.084;2023-05-03T06:31:28;99740.94;;;14.02;60.50
53011;BME280;42803;55.762;38.084;2023-05-03T06:33:59;99735.03;;;14.31;60.02
53011;BME280;42803;55.762;38.084;2023-05-03T06:36:28;99729.59;;;14.54;59.19
53011;BME280;42803;55.762;38.084;2023-05-03T06:38:59;99741.66;;;14.79;59.14
53011;BME280;42803;55.762;38.084;2023-05-03T06:41:31;99749.56;;;15.07;57.40
53011;BME280;42803;55.762;38.084;2023-05-03T06:44:01;99747.56;;;15.03;57.35
53011;BME280;42803;55.762;38.084;2023-05-03T06:46:33;99750.44;;;15.21;56.87
53011;BME280;42803;55.762;38.084;2023-05-03T06:49:03;99756.00;;;15.25;56.77
53011;BME280;42803;55.762;38.084;2023-05-03T06:51:33;99753.66;;;15.02;57.06
53011;BME280;42803;55.762;38.084;2023-05-03T06:54:21;99758.00;;;14.88;56.97
53011;BME280;42803;55.762;38.084;2023-05-03T06:56:50;99756.19;;;14.87;55.98
53011;BME280;42803;55.762;38.084;2023-05-03T06:59:19;99751.22;;;14.92;55.97
53011;BME280;42803;55.762;38.084;2023-05-03T07:01:48;99747.81;;;15.21;55.90
53011;BME280;42803;55.762;38.084;2023-05-03T07:07:06;99750.91;;;15.42;54.09
53011;BME280;42803;55.762;38.084;2023-05-03T07:09:35;99739.94;;;15.92;53.52
53011;BME280;42803;55.762;38.084;2023-05-03T07:12:10;99729.09;;;16.02;53.04
53011;BME280;42803;55.762;38.084;2023-05-03T07:14:41;99736.03;;;16.15;53.82
53011;BME280;42803;55.762;38.084;2023-05-03T07:17:10;99736.72;;;16.42;51.68
53011;BME280;42803;55.762;38.084;2023-05-03T07:19:41;99743.78;;;16.89;51.89
53011;BME280;42803;55.762;38.084;2023-05-03T07:22:11;99737.50;;;17.18;50.15
53011;BME280;42803;55.762;38.084;2023-05-03T07:24:41;99744.09;;;16.78;50.06
53011;BME280;42803;55.762;38.084;2023-05-03T07:27:10;99745.47;;;16.87;49.94
53011;BME280;42803;55.762;38.084;2023-05-03T07:29:39;99748.47;;;16.78;50.82
53011;BME280;42803;55.762;38.084;2023-05-03T07:32:08;99748.38;;;16.01;51.00
53011;BME280;42803;55.762;38.084;2023-05-03T07:34:40;99752.47;;;15.96;51.58
53011;BME280;42803;55.762;38.084;2023-05-03T07:37:09;99759.06;;;15.89;51.88
53011;BME280;42803;55.762;38.084;2023-05-03T07:39:39;99762.84;;;15.65;52.01
53011;BME280;42803;55.762;38.084;2023-05-03T07:42:09;99755.97;;;15.81;53.15
53011;BME280;42803;55.762;38.084;2023-05-03T07:44:39;99759.44;;;16.10;52.55
53011;BME280;42803;55.762;38.084;2023-05-03T07:47:08;99762.69;;;16.36;51.33
53011;BME280;42803;55.762;38.084;2023-05-03T07:49:37;99751.41;;;16.53;51.08
53011;BME280;42803;55.762;38.084;2023-05-03T07:52:08;99755.91;;;16.70;51.29
53011;BME280;42803;55.762;38.084;2023-05-03T07:54:37;99750.13;;;16.61;50.68
53011;BME280;42803;55.762;38.084;2023-05-03T07:57:06;99757.22;;;16.47;50.83
53011;BME280;42803;55.762;38.084;2023-05-03T07:59:35;99761.47;;;16.14;51.59
53011;BME280;42803;55.762;38.084;2023-05-03T08:02:05;99773.75;;;15.71;52.85
53011;BME280;42803;55.762;38.084;2023-05-03T08:04:35;99774.06;;;15.62;52.41
53011;BME280;42803;55.762;38.084;2023-05-03T08:07:04;99781.88;;;16.18;51.76
53011;BME280;42803;55.762;38.084;2023-05-03T08:09:38;99783.00;;;16.68;50.95
53011;BME280;42803;55.762;38.084;2023-05-03T08:12:08;99791.47;;;16.77;50.62
53011;BME280;42803;55.762;38.084;2023-05-03T08:14:37;99784.00;;;16.55;50.88
53011;BME280;42803;55.762;38.084;2023-05-03T08:17:09;99797.94;;;16.52;50.45
53011;BME280;42803;55.762;38.084;2023-05-03T08:19:38;99788.44;;;16.71;50.28
53011;BME280;42803;55.762;38.084;2023-05-03T08:22:09;99796.56;;;17.05;50.14
53011;BME280;42803;55.762;38.084;2023-05-03T08:24:40;99794.69;;;17.02;49.46
53011;BME280;42803;55.762;38.084;2023-05-03T08:27:13;99793.91;;;16.59;49.67
53011;BME280;42803;55.762;38.084;2023-05-03T08:29:42;99809.59;;;16.26;50.12
53011;BME280;42803;55.762;38.084;2023-05-03T08:32:11;99804.19;;;16.25;50.89
53011;BME280;42803;55.762;38.084;2023-05-03T08:34:41;99807.22;;;16.16;51.67
53011;BME280;42803;55.762;38.084;2023-05-03T08:37:11;99816.13;;;16.18;51.79
53011;BME280;42803;55.762;38.084;2023-05-03T08:39:43;99811.88;;;15.77;51.57
53011;BME280;42803;55.762;38.084;2023-05-03T08:42:14;99819.13;;;15.67;52.17
53011;BME280;42803;55.762;38.084;2023-05-03T08:44:44;99813.97;;;15.55;52.28
53011;BME280;42803;55.762;38.084;2023-05-03T08:47:15;99832.13;;;15.37;52.74
53011;BME280;42803;55.762;38.084;2023-05-03T08:49:46;99834.34;;;14.90;53.26
53011;BME280;42803;55.762;38.084;2023-05-03T08:52:15;99845.88;;;14.52;54.47
53011;BME280;42803;55.762;38.084;2023-05-03T08:54:48;99847.97;;;14.19;55.38
53011;BME280;42803;55.762;38.084;2023-05-03T08:57:17;99842.84;;;13.82;56.94
53011;BME280;42803;55.762;38.084;2023-05-03T08:59:47;99849.09;;;13.59;58.79
53011;BME280;42803;55.762;38.084;2023-05-03T09:02:17;99850.78;;;13.34;61.30
53011;BME280;42803;55.762;38.084;2023-05-03T09:04:46;99838.34;;;13.31;62.61
53011;BME280;42803;55.762;38.084;2023-05-03T09:07:34;99841.69;;;13.29;64.29
53011;BME280;42803;55.762;38.084;2023-05-03T09:10:21;99832.56;;;13.12;65.21
53011;BME280;42803;55.762;38.084;2023-05-03T09:12:57;99828.03;;;13.09;65.45
53011;BME280;42803;55.762;38.084;2023-05-03T09:15:26;99823.34;;;13.54;65.08
53011;BME280;42803;55.762;38.084;2023-05-03T09:18:12;99824.97;;;14.15;64.88
53011;BME280;42803;55.762;38.084;2023-05-03T09:20:45;99837.44;;;14.44;64.29
53011;BME280;42803;55.762;38.084;2023-05-03T09:23:28;99832.34;;;14.21;63.00
53011;BME280;42803;55.762;38.084;2023-05-03T09:25:59;99840.47;;;13.99;62.35
53011;BME280;42803;55.762;38.084;2023-05-03T09:28:29;99850.59;;;13.56;63.23
53011;BME280;42803;55.762;38.084;2023-05-03T09:31:08;99852.41;;;13.32;64.43
53011;BME280;42803;55.762;38.084;2023-05-03T09:33:40;99857.19;;;13.14;65.12
53011;BME280;42803;55.762;38.084;2023-05-03T09:36:09;99854.44;;;13.01;65.72
53011;BME280;42803;55.762;38.084;2023-05-03T09:38:38;99856.75;;;12.73;68.61
53011;BME280;42803;55.762;38.084;2023-05-03T09:41:09;99864.25;;;12.21;71.18
53011;BME280;42803;55.762;38.084;2023-05-03T09:43:47;99878.84;;;11.95;73.22
53011;BME280;42803;55.762;38.084;2023-05-03T09:46:17;99876.22;;;11.95;75.96
53011;BME280;42803;55.762;38.084;2023-05-03T09:48:47;99874.59;;;11.86;77.54
53011;BME280;42803;55.762;38.084;2023-05-03T09:51:16;99871.50;;;11.58;79.29
53011;BME280;42803;55.762;38.084;2023-05-03T09:53:46;99862.88;;;11.15;82.14
53011;BME280;42803;55.762;38.084;2023-05-03T09:56:17;99856.25;;;10.98;84.89
53011;BME280;42803;55.762;38.084;2023-05-03T09:58:47;99858.88;;;10.98;87.02
53011;BME280;42803;55.762;38.084;2023-05-03T10:01:16;99862.16;;;11.17;85.47
53011;BME280;42803;55.762;38.084;2023-05-03T10:03:47;99856.69;;;11.80;84.37
53011;BME280;42803;55.762;38.084;2023-05-03T10:06:24;99865.19;;;12.92;79.60
53011;BME280;42803;55.762;38.084;2023-05-03T10:09:00;99860.00;;;13.65;74.17
53011;BME280;42803;55.762;38.084;2023-05-03T10:11:34;99866.28;;;13.93;72.36
53011;BME280;42803;55.762;38.084;2023-05-03T10:14:04;99868.06;;;14.05;71.02
53011;BME280;42803;55.762;38.084;2023-05-03T10:16:36;99869.81;;;14.18;69.56
53011;BME280;42803;55.762;38.084;2023-05-03T10:19:14;99861.97;;;14.45;70.25
53011;BME280;42803;55.762;38.084;2023-05-03T10:21:54;99860.59;;;15.03;69.17
53011;BME280;42803;55.762;38.084;2023-05-03T10:24:26;99861.81;;;15.76;67.81
53011;BME280;42803;55.762;38.084;2023-05-03T10:26:57;99863.44;;;16.31;65.56
53011;BME280;42803;55.762;38.084;2023-05-03T10:29:51;99863.91;;;16.54;62.29
53011;BME280;42803;55.762;38.084;2023-05-03T10:32:31;99870.53;;;15.90;63.52
53011;BME280;42803;55.762;38.084;2023-05-03T10:35:03;99858.19;;;15.89;63.54
53011;BME280;42803;55.762;38.084;2023-05-03T10:37:33;99857.50;;;16.06;63.00
53011;BME280;42803;55.762;38.084;2023-05-03T10:40:08;99863.97;;;16.11;62.75
53011;BME280;42803;55.762;38.084;2023-05-03T10:42:41;99861.06;;;16.21;62.53
53011;BME280;42803;55.762;38.084;2023-05-03T10:45:20;99860.09;;;16.34;61.75
53011;BME280;42803;55.762;38.084;2023-05-03T10:48:15;99858.34;;;16.35;61.44
53011;BME280;42803;55.762;38.084;2023-05-03T10:50:47;99856.63;;;16.20;61.71
53011;BME280;42803;55.762;38.084;2023-05-03T10:53:35;99857.00;;;16.56;61.39
53011;BME280;42803;55.762;38.084;2023-05-03T10:56:06;99864.72;;;16.23;61.57
53011;BME280;42803;55.762;38.084;2023-05-03T10:58:41;99869.97;;;15.80;62.56
53011;BME280;42803;55.762;38.084;2023-05-03T11:01:12;99862.91;;;15.94;62.24
53011;BME280;42803;55.762;38.084;2023-05-03T11:03:48;99877.69;;;15.64;62.40
53011;BME280;42803;55.762;38.084;2023-05-03T11:06:29;99868.72;;;15.89;63.01
53011;BME280;42803;55.762;38.084;2023-05-03T11:09:01;99869.69;;;16.04;62.15
53011;BME280;42803;55.762;38.084;2023-05-03T11:11:34;99872.97;;;16.44;61.49
53011;BME280;42803;55.762;38.084;2023-05-03T11:14:05;99869.16;;;16.54;60.68
53011;BME280;42803;55.762;38.084;2023-05-03T11:16:36;99857.91;;;16.71;60.56
53011;BME280;42803;55.762;38.084;2023-05-03T11:19:07;99868.63;;;16.45;60.94
53011;BME280;42803;55.762;38.084;2023-05-03T11:21:36;99851.75;;;16.56;61.12
53011;BME280;42803;55.762;38.084;2023-05-03T11:24:06;99850.06;;;16.73;60.69
53011;BME280;42803;55.762;38.084;2023-05-03T11:26:35;99858.09;;;16.45;60.91
53011;BME280;42803;55.762;38.084;2023-05-03T11:29:08;99855.63;;;16.33;61.40
53011;BME280;42803;55.762;38.084;2023-05-03T11:31:40;99850.84;;;15.98;61.37
53011;BME280;42803;55.762;38.084;2023-05-03T11:34:11;99853.28;;;15.39;62.78
53011;BME280;42803;55.762;38.084;2023-05-03T11:36:41;99862.44;;;14.91;64.42
53011;BME280;42803;55.762;38.084;2023-05-03T11:39:11;99856.38;;;15.05;65.14
53011;BME280;42803;55.762;38.084;2023-05-03T11:41:41;99855.19;;;15.00;64.37
53011;BME280;42803;55.762;38.084;2023-05-03T11:44:11;99847.88;;;15.09;64.21
53011;BME280;42803;55.762;38.084;2023-05-03T11:46:45;99843.81;;;15.27;63.45
53011;BME280;42803;55.762;38.084;2023-05-03T11:49:18;99852.34;;;15.79;62.73
53011;BME280;42803;55.762;38.084;2023-05-03T11:51:47;99845.94;;;15.89;61.27
53011;BME280;42803;55.762;38.084;2023-05-03T11:54:21;99841.28;;;16.28;60.78
53011;BME280;42803;55.762;38.084;2023-05-03T11:56:55;99838.06;;;16.63;60.10
53011;BME280;42803;55.762;38.084;2023-05-03T11:59:35;99838.81;;;16.16;59.65
53011;BME280;42803;55.762;38.084;2023-05-03T12:02:05;99838.75;;;15.87;60.74
53011;BME280;42803;55.762;38.084;2023-05-03T12:04:36;99841.25;;;15.70;60.28
53011;BME280;42803;55.762;38.084;2023-05-03T12:07:09;99847.97;;;15.65;59.63
53011;BME280;42803;55.762;38.084;2023-05-03T12:09:45;99840.28;;;15.55;60.01
53011;BME280;42803;55.762;38.084;2023-05-03T12:12:34;99846.09;;;15.36;60.09
53011;BME280;42803;55.762;38.084;2023-05-03T12:15:11;99841.06;;;15.67;60.59
53011;BME280;42803;55.762;38.084;2023-05-03T12:17:43;99839.16;;;15.51;59.53
53011;BME280;42803;55.762;38.084;2023-05-03T12:20:17;99838.66;;;15.57;59.27
53011;BME280;42803;55.762;38.084;2023-05-03T12:22:51;99849.19;;;15.57;59.68
53011;BME280;42803;55.762;38.084;2023-05-03T12:25:24;99851.28;;;15.34;58.80
53011;BME280;42803;55.762;38.084;2023-05-03T12:28:01;99852.69;;;15.29;58.82
53011;BME280;42803;55.762;38.084;2023-05-03T12:30:36;99836.13;;;15.17;59.48
53011;BME280;42803;55.762;38.084;2023-05-03T12:33:08;99856.19;;;14.75;60.44
53011;BME280;42803;55.762;38.084;2023-05-03T12:35:41;99843.84;;;14.87;59.98
53011;BME280;42803;55.762;38.084;2023-05-03T12:38:15;99855.03;;;15.25;59.05
53011;BME280;42803;55.762;38.084;2023-05-03T12:40:45;99851.28;;;15.34;58.57
53011;BME280;42803;55.762;38.084;2023-05-03T12:43:15;99853.00;;;15.21;58.13
53011;BME280;42803;55.762;38.084;2023-05-03T12:45:45;99857.50;;;15.50;57.84
53011;BME280;42803;55.762;38.084;2023-05-03T12:48:34;99853.50;;;16.13;57.08
53011;BME280;42803;55.762;38.084;2023-05-03T12:51:04;99850.81;;;16.11;56.00
53011;BME280;42803;55.762;38.084;2023-05-03T12:53:46;99856.41;;;16.17;56.29
53011;BME280;42803;55.762;38.084;2023-05-03T12:56:21;99853.31;;;15.67;56.98
53011;BME280;42803;55.762;38.084;2023-05-03T12:58:52;99852.84;;;16.02;57.00
53011;BME280;42803;55.762;38.084;2023-05-03T13:01:25;99846.28;;;16.23;56.72
53011;BME280;42803;55.762;38.084;2023-05-03T13:03:59;99839.97;;;15.92;56.51
53011;BME280;42803;55.762;38.084;2023-05-03T13:06:30;99842.16;;;15.43;57.62
53011;BME280;42803;55.762;38.084;2023-05-03T13:09:09;99841.13;;;15.41;57.60
53011;BME280;42803;55.762;38.084;2023-05-03T13:11:47;99836.81;;;15.69;57.33
53011;BME280;42803;55.762;38.084;2023-05-03T13:14:19;99834.19;;;15.69;57.51
53011;BME280;42803;55.762;38.084;2023-05-03T13:16:50;99842.63;;;16.06;57.04
53011;BME280;42803;55.762;38.084;2023-05-03T13:19:19;99844.81;;;16.43;55.85
53011;BME280;42803;55.762;38.084;2023-05-03T13:21:48;99841.91;;;16.39;55.79